Time;durP1;ratioP1;P1;durP2;ratioP2;P2;SDS_P1;SDS_P2;PMS_P1;PMS_P2;Temp;Humidity;BMP_temperature;BMP_pressure;BME280_temperature;BME280_humidity;BME280_pressure;Samples;Min_cycle;Max_cycle;Signal;HPM_P1;HPM_P2
2022/03/04 00:01:35;;;;;;;35.55;21.10;;;3.80;99.90;;;;;;5012982;28;20116;-78
2022/03/04 00:04:03;;;;;;;31.35;20.48;;;4.00;99.90;;;;;;5012716;28;20508;-78
2022/03/04 00:06:31;;;;;;;32.75;20.30;;;4.10;99.90;;;;;;5011745;28;20460;-78
2022/03/04 00:08:58;;;;;;;35.42;20.77;;;4.00;99.90;;;;;;5011915;28;20057;-77
2022/03/04 00:11:25;;;;;;;30.60;19.30;;;3.90;99.90;;;;;;5012703;28;20072;-76
2022/03/04 00:13:54;;;;;;;29.42;19.73;;;3.70;99.90;;;;;;5012424;28;20049;-78
2022/03/04 00:16:21;;;;;;;36.47;19.20;;;3.90;99.90;;;;;;5011948;28;20092;-76
2022/03/04 00:19:06;;;;;;;27.65;17.90;;;4.10;99.90;;;;;;5012493;28;20390;-77
2022/03/04 00:21:33;;;;;;;27.50;17.98;;;4.00;99.90;;;;;;5011639;28;20045;-74
2022/03/04 00:24:00;;;;;;;32.78;18.30;;;4.00;99.90;;;;;;5012526;28;20046;-76
2022/03/04 00:26:28;;;;;;;29.25;18.98;;;3.90;99.90;;;;;;4994765;28;20050;-76
2022/03/04 00:28:55;;;;;;;28.17;19.13;;;3.90;99.90;;;;;;5011990;28;20038;-77
2022/03/04 00:31:23;;;;;;;26.63;17.48;;;3.80;99.90;;;;;;5012547;28;20074;-78
2022/03/04 00:33:51;;;;;;;31.35;19.15;;;4.00;99.90;;;;;;5011742;28;20041;-75
2022/03/04 00:36:23;;;;;;;32.15;19.70;;;4.00;99.90;;;;;;5010584;28;20202;-75
2022/03/04 00:38:52;;;;;;;36.15;19.75;;;4.00;99.90;;;;;;5012590;28;20681;-78
2022/03/04 00:41:21;;;;;;;34.97;20.00;;;4.00;99.90;;;;;;5012139;28;20038;-77
2022/03/04 00:43:51;;;;;;;30.08;19.92;;;4.00;99.90;;;;;;5012325;28;20401;-76
2022/03/04 00:46:18;;;;;;;31.02;20.15;;;3.90;99.90;;;;;;5012273;28;20045;-76
2022/03/04 00:48:46;;;;;;;33.97;20.35;;;3.90;99.90;;;;;;5011971;28;20042;-74
2022/03/04 00:51:14;;;;;;;33.90;20.73;;;3.70;99.90;;;;;;5010691;28;20489;-77
2022/03/04 00:53:42;;;;;;;32.92;19.27;;;3.50;99.90;;;;;;5010842;28;20233;-76
2022/03/04 00:56:11;;;;;;;30.77;19.90;;;3.70;99.90;;;;;;5010985;28;20521;-77
2022/03/04 00:58:39;;;;;;;26.55;18.63;;;3.80;99.90;;;;;;5010428;28;20378;-76
2022/03/04 01:01:07;;;;;;;30.40;18.75;;;3.50;99.90;;;;;;5012062;28;20071;-77
2022/03/04 01:03:35;;;;;;;34.40;18.20;;;3.30;99.90;;;;;;4994234;28;20409;-76
2022/03/04 01:06:04;;;;;;;25.08;16.90;;;3.40;99.90;;;;;;5012082;28;20121;-77
2022/03/04 01:08:32;;;;;;;26.33;17.02;;;3.60;99.90;;;;;;5011558;28;20048;-73
2022/03/04 01:11:01;;;;;;;26.65;17.67;;;3.70;99.90;;;;;;5010679;28;20497;-75
2022/03/04 01:13:28;;;;;;;27.13;16.27;;;3.70;99.90;;;;;;5011480;28;20056;-76
2022/03/04 01:15:56;;;;;;;24.85;16.75;;;3.60;99.90;;;;;;5011361;28;20066;-73
2022/03/04 01:18:23;;;;;;;30.50;17.20;;;3.70;99.90;;;;;;5011718;28;20046;-75
2022/03/04 01:20:51;;;;;;;24.83;16.58;;;3.60;99.90;;;;;;5010398;28;20410;-75
2022/03/04 01:23:18;;;;;;;24.88;15.95;;;3.60;99.90;;;;;;5009994;28;20048;-76
2022/03/04 01:25:46;;;;;;;23.40;15.73;;;3.70;99.90;;;;;;5010468;28;20144;-77
2022/03/04 01:28:13;;;;;;;25.70;15.95;;;3.70;99.90;;;;;;5011464;28;20038;-73
2022/03/04 01:30:40;;;;;;;22.92;15.90;;;3.60;99.90;;;;;;5011481;28;20056;-74
2022/03/04 01:33:07;;;;;;;26.83;16.27;;;3.50;99.90;;;;;;5011609;28;20458;-75
2022/03/04 01:35:36;;;;;;;26.20;16.92;;;3.60;99.90;;;;;;5011416;28;20042;-76
2022/03/04 01:38:03;;;;;;;23.67;16.63;;;3.40;99.90;;;;;;5009956;28;20128;-74
2022/03/04 01:40:31;;;;;;;22.42;15.68;;;3.30;99.90;;;;;;5011475;28;20046;-75
2022/03/04 01:42:58;;;;;;;21.08;14.57;;;3.30;99.90;;;;;;5011320;28;20042;-73
2022/03/04 01:45:26;;;;;;;23.17;15.32;;;3.30;99.90;;;;;;5011404;28;20046;-75
2022/03/04 01:47:53;;;;;;;25.73;16.73;;;3.20;99.90;;;;;;5015030;28;20141;-72
2022/03/04 01:50:22;;;;;;;24.02;15.43;;;3.40;99.90;;;;;;5015256;28;20046;-75
2022/03/04 01:52:49;;;;;;;24.98;15.70;;;3.50;99.90;;;;;;5015548;28;20145;-75
2022/03/04 01:55:17;;;;;;;23.85;15.32;;;3.40;99.90;;;;;;5015338;28;20405;-76
2022/03/04 01:57:44;;;;;;;21.70;14.02;;;3.20;99.90;;;;;;5014367;28;20062;-75
2022/03/04 02:00:13;;;;;;;24.77;16.00;;;3.30;99.90;;;;;;5014617;28;20046;-75
2022/03/04 02:02:42;;;;;;;31.27;17.55;;;3.00;99.90;;;;;;5015002;28;20041;-73
2022/03/04 02:05:15;;;;;;;27.35;16.83;;;2.90;99.90;;;;;;5015094;28;20472;-74
2022/03/04 02:07:43;;;;;;;27.42;17.15;;;2.90;99.90;;;;;;5014995;28;20058;-74
2022/03/04 02:10:11;;;;;;;25.25;16.08;;;3.30;99.90;;;;;;5014864;28;20049;-75
2022/03/04 02:12:39;;;;;;;23.67;14.57;;;3.50;99.90;;;;;;5015079;28;20074;-75
2022/03/04 02:15:07;;;;;;;22.63;15.73;;;3.60;99.90;;;;;;5014751;28;20501;-74
2022/03/04 02:17:36;;;;;;;27.40;16.13;;;3.80;99.90;;;;;;5015052;28;20048;-75
2022/03/04 02:20:04;;;;;;;27.40;17.02;;;3.80;99.90;;;;;;5013103;28;20042;-74
2022/03/04 02:22:32;;;;;;;26.38;16.50;;;3.80;99.90;;;;;;5014922;28;20500;-75
2022/03/04 02:25:00;;;;;;;28.13;16.27;;;3.50;99.90;;;;;;5014621;28;20482;-76
2022/03/04 02:27:28;;;;;;;28.13;16.02;;;3.40;99.90;;;;;;5013811;28;20061;-75
2022/03/04 02:29:55;;;;;;;28.55;17.50;;;3.60;99.90;;;;;;5014288;28;20053;-75
2022/03/04 02:32:22;;;;;;;22.35;15.98;;;3.50;99.90;;;;;;5013452;28;20420;-75
2022/03/04 02:34:50;;;;;;;26.52;16.65;;;3.50;99.90;;;;;;5014176;28;20481;-75
2022/03/04 02:37:18;;;;;;;25.77;15.85;;;3.60;99.90;;;;;;5014663;28;20473;-73
2022/03/04 02:39:45;;;;;;;23.92;15.93;;;3.60;99.90;;;;;;5013091;28;20042;-76
2022/03/04 02:42:12;;;;;;;26.45;15.80;;;3.60;99.90;;;;;;5014386;28;20564;-75
2022/03/04 02:44:40;;;;;;;24.92;15.27;;;3.60;99.90;;;;;;5014471;28;20561;-75
2022/03/04 02:47:07;;;;;;;26.10;16.00;;;3.60;99.90;;;;;;5014252;28;20397;-77
2022/03/04 02:49:34;;;;;;;24.42;14.93;;;3.50;99.90;;;;;;4996936;28;20053;-76
2022/03/04 02:52:02;;;;;;;24.85;15.95;;;3.60;99.90;;;;;;5014317;28;20040;-74
2022/03/04 02:54:29;;;;;;;24.90;15.80;;;3.50;99.90;;;;;;5014170;28;20073;-76
2022/03/04 02:56:56;;;;;;;27.83;17.25;;;3.60;99.90;;;;;;5012920;28;20180;-78
2022/03/04 02:59:23;;;;;;;26.23;17.88;;;3.30;99.90;;;;;;5013407;28;20069;-74
2022/03/04 03:01:51;;;;;;;28.35;17.55;;;3.30;99.90;;;;;;5014017;28;20034;-77
2022/03/04 03:04:19;;;;;;;30.30;18.30;;;3.20;99.90;;;;;;5012578;28;20078;-76
2022/03/04 03:06:46;;;;;;;26.05;17.38;;;3.10;99.90;;;;;;5013844;28;20048;-77
2022/03/04 03:09:13;;;;;;;30.42;18.15;;;3.20;99.90;;;;;;5014076;28;20045;-76
2022/03/04 03:11:41;;;;;;;25.90;17.17;;;3.20;99.90;;;;;;5013953;28;20141;-76
2022/03/04 03:14:08;;;;;;;27.77;18.83;;;3.20;99.90;;;;;;5013704;28;20134;-75
2022/03/04 03:16:35;;;;;;;30.80;18.77;;;3.20;99.90;;;;;;5013689;28;20485;-76
2022/03/04 03:19:03;;;;;;;32.67;19.90;;;3.20;99.90;;;;;;5012360;28;20053;-77
2022/03/04 03:21:30;;;;;;;29.08;18.45;;;2.80;99.90;;;;;;5013851;28;20457;-75
2022/03/04 03:23:57;;;;;;;29.58;18.63;;;2.60;99.90;;;;;;5013567;28;20057;-78
2022/03/04 03:26:24;;;;;;;31.85;18.05;;;2.60;99.90;;;;;;5013317;28;20406;-77
2022/03/04 03:28:52;;;;;;;27.05;16.17;;;2.80;99.90;;;;;;5012434;28;20045;-77
2022/03/04 03:31:19;;;;;;;28.52;17.85;;;2.90;99.90;;;;;;5013457;28;20568;-77
2022/03/04 03:33:47;;;;;;;25.35;17.20;;;2.90;99.90;;;;;;5011799;28;20053;-77
2022/03/04 03:36:14;;;;;;;26.38;16.35;;;3.00;99.90;;;;;;5013542;28;20138;-75
2022/03/04 03:38:41;;;;;;;25.27;16.67;;;3.20;99.90;;;;;;5012369;28;20494;-75
2022/03/04 03:41:09;;;;;;;25.85;16.25;;;3.10;99.90;;;;;;4996179;28;20042;-75
2022/03/04 03:43:41;;;;;;;26.77;15.93;;;3.00;99.90;;;;;;5012001;28;20046;-76
2022/03/04 03:46:09;;;;;;;27.55;16.55;;;2.80;99.90;;;;;;5011893;28;20076;-75
2022/03/04 03:48:40;;;;;;;21.95;16.02;;;2.80;99.90;;;;;;4995830;28;20050;-74
2022/03/04 03:51:07;;;;;;;;;;;2.70;99.90;;;;;;5012500;28;20161;-74
2022/03/04 03:53:34;;;;;;;28.02;16.00;;;2.70;99.90;;;;;;5013656;28;19922;-73
2022/03/04 03:56:02;;;;;;;26.35;15.70;;;2.50;99.90;;;;;;4995399;28;20367;-75
2022/03/04 03:58:30;;;;;;;24.15;16.77;;;2.70;99.90;;;;;;4995513;28;20537;-75
2022/03/04 04:00:58;;;;;;;24.33;16.17;;;2.70;99.90;;;;;;5012935;28;20034;-76
2022/03/04 04:03:26;;;;;;;31.55;17.65;;;2.70;99.90;;;;;;4995300;28;20058;-75
2022/03/04 04:05:53;;;;;;;27.55;16.88;;;2.80;99.90;;;;;;5011567;28;20571;-75
2022/03/04 04:08:21;;;;;;;24.92;16.10;;;2.70;99.90;;;;;;5011773;28;20053;-74
2022/03/04 04:10:49;;;;;;;21.42;15.13;;;2.70;99.90;;;;;;5011646;28;20387;-73
2022/03/04 04:13:16;;;;;;;25.38;16.35;;;2.70;99.90;;;;;;5010970;28;20413;-75
2022/03/04 04:15:43;;;;;;;23.98;15.70;;;2.60;99.90;;;;;;5012878;28;20397;-76
2022/03/04 04:18:11;;;;;;;25.08;15.65;;;2.70;99.90;;;;;;5012577;28;20042;-78
2022/03/04 04:20:38;;;;;;;24.83;16.13;;;2.70;99.90;;;;;;5012635;28;20588;-77
2022/03/04 04:23:06;;;;;;;26.83;15.93;;;2.50;99.90;;;;;;5011027;28;20042;-76
2022/03/04 04:25:33;;;;;;;24.23;15.45;;;2.40;99.90;;;;;;5011292;28;20412;-74
2022/03/04 04:28:01;;;;;;;22.15;15.93;;;2.40;99.90;;;;;;5012296;28;20046;-74
2022/03/04 04:30:30;;;;;;;26.63;16.45;;;2.20;99.90;;;;;;5011076;28;20053;-75
2022/03/04 04:32:57;;;;;;;29.00;15.43;;;2.20;99.90;;;;;;5012279;28;20120;-75
2022/03/04 04:35:24;;;;;;;26.77;15.63;;;2.20;99.90;;;;;;5012143;28;20133;-74
2022/03/04 04:37:52;;;;;;;25.23;15.40;;;2.30;99.90;;;;;;5011194;28;20042;-77
2022/03/04 04:40:20;;;;;;;27.25;16.25;;;2.30;99.90;;;;;;5012160;28;20069;-77
2022/03/04 04:42:47;;;;;;;24.98;16.77;;;2.40;99.90;;;;;;5012605;28;20048;-77
2022/03/04 04:45:14;;;;;;;25.10;15.68;;;2.40;99.90;;;;;;4994783;28;20398;-76
2022/03/04 04:47:42;;;;;;;24.45;15.45;;;2.50;99.90;;;;;;4994657;28;20033;-75
2022/03/04 04:50:10;;;;;;;22.67;16.00;;;2.50;99.90;;;;;;5011242;28;20050;-75
2022/03/04 04:52:37;;;;;;;24.02;16.83;;;2.50;99.90;;;;;;5012323;28;20389;-75
2022/03/04 04:55:05;;;;;;;26.40;16.73;;;2.50;99.90;;;;;;5011136;28;20073;-76
2022/03/04 04:57:32;;;;;;;26.17;16.80;;;2.40;99.90;;;;;;5011951;28;20049;-75
2022/03/04 04:59:59;;;;;;;28.52;16.50;;;2.50;99.90;;;;;;5011744;28;20121;-75
2022/03/04 05:02:27;;;;;;;24.63;16.60;;;2.40;99.90;;;;;;5011595;28;20132;-76
2022/03/04 05:04:55;;;;;;;25.50;16.70;;;2.40;99.90;;;;;;4994224;28;20141;-75
2022/03/04 05:07:22;;;;;;;28.02;16.13;;;2.50;99.90;;;;;;5010582;28;20105;-75
2022/03/04 05:09:49;;;;;;;23.90;15.77;;;2.60;99.90;;;;;;5010434;28;20046;-74
2022/03/04 05:12:17;;;;;;;25.83;16.02;;;2.60;99.90;;;;;;5011470;28;20493;-74
2022/03/04 05:14:44;;;;;;;28.90;17.02;;;2.50;99.90;;;;;;5011871;28;20440;-76
2022/03/04 05:17:12;;;;;;;25.40;16.67;;;2.10;99.90;;;;;;4994354;28;20049;-76
2022/03/04 05:19:39;;;;;;;27.92;18.02;;;2.00;99.90;;;;;;5011431;28;20137;-76
2022/03/04 05:22:06;;;;;;;32.58;18.05;;;2.30;99.90;;;;;;5010302;28;20131;-75
2022/03/04 05:24:34;;;;;;;36.97;18.80;;;2.70;99.90;;;;;;4994156;28;20677;-76
2022/03/04 05:27:01;;;;;;;27.15;16.77;;;2.70;99.90;;;;;;5011322;28;20045;-73
2022/03/04 05:29:28;;;;;;;30.67;17.02;;;2.50;99.90;;;;;;5011512;28;20121;-75
2022/03/04 05:31:56;;;;;;;26.45;16.13;;;2.70;99.90;;;;;;5011369;28;20467;-76
2022/03/04 05:34:23;;;;;;;22.50;15.10;;;2.60;99.90;;;;;;5011429;28;20512;-76
2022/03/04 05:36:50;;;;;;;24.95;16.27;;;2.80;99.90;;;;;;5011220;28;20481;-75
2022/03/04 05:39:18;;;;;;;24.73;16.70;;;2.80;99.90;;;;;;5010369;28;20496;-76
2022/03/04 05:41:45;;;;;;;28.70;16.65;;;2.70;99.90;;;;;;5009966;28;20044;-75
2022/03/04 05:44:13;;;;;;;22.58;14.60;;;2.80;99.90;;;;;;5010023;28;20050;-74
2022/03/04 05:46:41;;;;;;;25.10;16.23;;;2.90;99.90;;;;;;5010309;28;20681;-76
2022/03/04 05:49:09;;;;;;;22.88;15.40;;;2.80;99.90;;;;;;4993875;28;20141;-76
2022/03/04 05:51:37;;;;;;;24.77;16.75;;;2.80;99.90;;;;;;5010494;28;20046;-74
2022/03/04 05:54:04;;;;;;;26.77;17.33;;;2.60;99.90;;;;;;5010093;28;20428;-72
2022/03/04 05:56:31;;;;;;;23.73;16.15;;;2.60;99.90;;;;;;5010286;28;20042;-76
2022/03/04 05:58:59;;;;;;;26.42;15.85;;;2.50;99.90;;;;;;5009770;28;20092;-77
2022/03/04 06:01:26;;;;;;;25.92;16.35;;;2.40;99.90;;;;;;5011129;28;20401;-73
2022/03/04 06:03:53;;;;;;;26.73;16.83;;;2.30;99.90;;;;;;4993881;28;20085;-75
2022/03/04 06:06:20;;;;;;;29.30;16.75;;;2.30;99.90;;;;;;5009901;28;20053;-78
2022/03/04 06:08:48;;;;;;;31.10;18.35;;;2.40;99.90;;;;;;5011271;28;20049;-75
2022/03/04 06:11:16;;;;;;;111.30;58.03;;;2.40;99.90;;;;;;5010265;28;20046;-73
2022/03/04 06:13:43;;;;;;;207.85;96.45;;;2.80;99.90;;;;;;5010616;28;20506;-73
2022/03/04 06:16:11;;;;;;;177.20;93.72;;;2.90;99.90;;;;;;4990275;28;20053;-74
2022/03/04 06:18:39;;;;;;;263.83;123.88;;;3.10;99.90;;;;;;4991853;28;20042;-72
2022/03/04 06:21:07;;;;;;;39.42;26.38;;;3.40;99.90;;;;;;4989613;28;20454;-73
2022/03/04 06:23:34;;;;;;;28.35;19.20;;;3.00;99.90;;;;;;5007341;28;20089;-76
2022/03/04 06:26:02;;;;;;;29.85;17.75;;;2.60;99.90;;;;;;5006094;28;20557;-72
2022/03/04 06:28:30;;;;;;;24.63;17.70;;;2.50;99.90;;;;;;4981910;28;20042;-72
2022/03/04 06:30:58;;;;;;;26.23;18.15;;;2.90;99.90;;;;;;5007057;28;20038;-71
2022/03/04 06:33:32;;;;;;;32.22;17.73;;;3.20;99.90;;;;;;5008241;28;20058;-73
2022/03/04 06:36:05;;;;;;;28.50;18.33;;;3.20;99.90;;;;;;5009712;28;20370;-74
2022/03/04 06:38:34;;;;;;;26.48;18.13;;;3.30;99.90;;;;;;5007378;28;20056;-74
2022/03/04 06:41:03;;;;;;;29.55;19.27;;;3.00;99.90;;;;;;5011061;28;20048;-74
2022/03/04 06:43:32;;;;;;;29.58;19.00;;;2.90;99.90;;;;;;5010935;28;20076;-73
2022/03/04 06:45:59;;;;;;;32.85;21.17;;;3.10;99.90;;;;;;5010544;28;20445;-73
2022/03/04 06:48:27;;;;;;;37.22;20.08;;;3.20;99.90;;;;;;4993954;28;20046;-71
2022/03/04 06:50:55;;;;;;;32.10;18.70;;;3.50;99.90;;;;;;5012476;28;20057;-74
2022/03/04 06:53:24;;;;;;;27.98;18.40;;;3.60;99.90;;;;;;5000264;28;20035;-74
2022/03/04 06:55:52;;;;;;;35.00;20.30;;;3.60;99.90;;;;;;5011363;28;20141;-74
2022/03/04 06:58:20;;;;;;;28.50;17.98;;;3.70;99.90;;;;;;5010548;28;20112;-73
2022/03/04 07:00:47;;;;;;;28.45;18.38;;;3.70;99.90;;;;;;5012330;28;20081;-75
2022/03/04 07:03:15;;;;;;;28.48;19.42;;;3.30;99.90;;;;;;5010781;28;20053;-73
2022/03/04 07:05:45;;;;;;;27.05;18.15;;;3.40;99.90;;;;;;5011200;28;20117;-76
2022/03/04 07:08:13;;;;;;;40.30;25.30;;;3.30;99.90;;;;;;5012123;28;20077;-75
2022/03/04 07:10:45;;;;;;;149.20;79.30;;;4.00;99.90;;;;;;5012679;28;20375;-74
2022/03/04 07:13:12;;;;;;;30.10;21.23;;;4.10;99.90;;;;;;5005217;28;20041;-73
2022/03/04 07:15:40;;;;;;;25.23;18.23;;;3.70;99.90;;;;;;5011593;28;20107;-73
2022/03/04 07:18:08;;;;;;;27.92;16.92;;;3.20;99.90;;;;;;5012028;28;20050;-72
2022/03/04 07:20:35;;;;;;;26.65;18.42;;;3.00;99.90;;;;;;5012498;28;20069;-73
2022/03/04 07:23:05;;;;;;;29.70;18.30;;;2.90;99.90;;;;;;4996319;28;20056;-73
2022/03/04 07:25:33;;;;;;;28.95;18.20;;;2.90;99.90;;;;;;4995915;28;20049;-73
2022/03/04 07:28:00;;;;;;;32.85;18.52;;;3.00;99.90;;;;;;5012263;28;20523;-73
2022/03/04 07:30:28;;;;;;;26.63;17.80;;;3.10;99.90;;;;;;5012154;28;20069;-73
2022/03/04 07:32:55;;;;;;;28.52;17.42;;;3.20;99.90;;;;;;5012045;28;20048;-73
2022/03/04 07:35:22;;;;;;;28.83;17.65;;;3.20;99.90;;;;;;5012101;28;20437;-75
2022/03/04 07:37:50;;;;;;;25.42;16.70;;;3.40;99.90;;;;;;5012145;28;20129;-72
2022/03/04 07:40:18;;;;;;;25.40;16.83;;;3.50;99.90;;;;;;5010168;28;20052;-75
2022/03/04 07:42:45;;;;;;;27.25;17.77;;;3.50;99.90;;;;;;4992530;28;20039;-74
2022/03/04 07:45:14;;;;;;;30.30;17.85;;;3.60;99.90;;;;;;4991798;28;20514;-76
2022/03/04 07:47:43;;;;;;;24.23;17.05;;;3.80;99.90;;;;;;4992558;28;20049;-73
2022/03/04 07:50:12;;;;;;;25.02;17.20;;;3.90;99.90;;;;;;4992177;28;20612;-76
2022/03/04 07:52:41;;;;;;;27.08;17.02;;;3.90;99.90;;;;;;4992387;28;20050;-74
2022/03/04 07:55:12;;;;;;;28.38;17.98;;;4.00;99.90;;;;;;4991894;28;20042;-75
2022/03/04 07:57:40;;;;;;;28.30;18.30;;;4.00;99.90;;;;;;5004260;28;20465;-73
2022/03/04 08:00:10;;;;;;;32.50;19.42;;;4.30;99.90;;;;;;4995341;28;20061;-73
2022/03/04 08:02:38;;;;;;;27.67;19.63;;;4.10;99.90;;;;;;5012705;28;20121;-72
2022/03/04 08:05:08;;;;;;;28.50;19.23;;;4.10;99.90;;;;;;5012198;28;20479;-72
2022/03/04 08:07:37;;;;;;;30.10;19.38;;;4.20;99.90;;;;;;4995026;28;20550;-73
2022/03/04 08:10:09;;;;;;;29.10;19.13;;;4.50;99.90;;;;;;4995408;28;20367;-72
2022/03/04 08:12:37;;;;;;;27.60;19.15;;;4.70;99.90;;;;;;5010652;28;20057;-71
2022/03/04 08:15:06;;;;;;;37.10;20.42;;;4.70;99.90;;;;;;5011408;28;20056;-74
2022/03/04 08:17:35;;;;;;;32.55;21.13;;;4.90;99.90;;;;;;5011488;28;20054;-72
2022/03/04 08:20:04;;;;;;;36.75;21.45;;;5.00;99.90;;;;;;4995282;28;20088;-73
2022/03/04 08:22:31;;;;;;;32.50;22.50;;;5.10;99.90;;;;;;4995337;28;20049;-74
2022/03/04 08:24:58;;;;;;;33.33;22.42;;;5.20;99.90;;;;;;5010653;28;20386;-70
2022/03/04 08:27:26;;;;;;;33.88;20.73;;;5.30;99.90;;;;;;5010554;28;20099;-73
2022/03/04 08:29:53;;;;;;;32.63;20.67;;;5.50;99.90;;;;;;5009872;28;20048;-75
2022/03/04 08:32:23;;;;;;;38.97;22.98;;;5.80;99.90;;;;;;5010906;28;20105;-74
2022/03/04 08:34:59;;;;;;;35.92;21.58;;;5.80;99.90;;;;;;5007004;28;20128;-74
2022/03/04 08:37:27;;;;;;;37.03;21.73;;;5.50;99.90;;;;;;4994173;28;20045;-73
2022/03/04 08:39:54;;;;;;;34.35;21.73;;;5.70;99.90;;;;;;5009785;28;20572;-72
2022/03/04 08:42:22;;;;;;;30.08;19.65;;;5.80;99.90;;;;;;5010345;28;20044;-71
2022/03/04 08:44:49;;;;;;;32.10;20.55;;;5.90;99.90;;;;;;5009676;28;20129;-72
2022/03/04 08:47:17;;;;;;;39.17;24.95;;;6.10;99.90;;;;;;4988814;28;20145;-72
2022/03/04 08:49:44;;;;;;;39.13;25.55;;;6.50;99.50;;;;;;5008971;28;20512;-71
2022/03/04 08:52:13;;;;;;;36.30;24.15;;;6.70;98.90;;;;;;5011116;28;20048;-75
2022/03/04 08:54:40;;;;;;;39.70;23.45;;;6.70;98.40;;;;;;4991219;28;20105;-74
2022/03/04 08:57:08;;;;;;;37.35;22.40;;;6.80;98.40;;;;;;4998114;28;20419;-75
2022/03/04 08:59:35;;;;;;;34.47;21.50;;;6.70;98.50;;;;;;5010939;28;20044;-75
2022/03/04 09:02:03;;;;;;;29.27;20.48;;;6.80;98.00;;;;;;5010372;28;20048;-72
2022/03/04 09:04:30;;;;;;;32.50;20.60;;;7.10;98.20;;;;;;5009952;28;20049;-74
2022/03/04 09:06:57;;;;;;;43.38;21.52;;;7.20;95.90;;;;;;5010847;28;20401;-77
2022/03/04 09:09:25;;;;;;;65.93;39.15;;;7.40;99.90;;;;;;5009335;28;20037;-76
2022/03/04 09:11:52;;;;;;;54.33;30.52;;;8.00;98.30;;;;;;5010041;28;20044;-74
2022/03/04 09:14:23;;;;;;;31.88;21.10;;;7.70;98.90;;;;;;5010482;28;20048;-71
2022/03/04 09:16:52;;;;;;;28.58;20.90;;;7.50;95.00;;;;;;5008290;28;20511;-74
2022/03/04 09:19:20;;;;;;;33.97;20.38;;;7.60;93.90;;;;;;5010728;28;20046;-73
2022/03/04 09:22:05;;;;;;;34.38;20.20;;;7.50;93.80;;;;;;5008074;28;20054;-75
2022/03/04 09:24:32;;;;;;;32.33;19.50;;;7.70;93.40;;;;;;4992404;28;21521;-73
2022/03/04 09:26:59;;;;;;;26.13;18.98;;;8.00;92.20;;;;;;5003619;28;20048;-71
2022/03/04 09:29:26;;;;;;;29.83;20.20;;;7.70;91.20;;;;;;5010130;28;20100;-71
2022/03/04 09:31:54;;;;;;;30.38;20.90;;;7.70;90.90;;;;;;5007534;28;20127;-72
2022/03/04 09:34:21;;;;;;;34.50;20.55;;;7.80;91.50;;;;;;5010088;28;20050;-73
2022/03/04 09:36:48;;;;;;;31.40;20.10;;;7.90;91.00;;;;;;5010248;28;20046;-72
2022/03/04 09:39:16;;;;;;;29.20;19.65;;;8.00;90.50;;;;;;5009147;28;20056;-72
2022/03/04 09:41:45;;;;;;;22.83;17.48;;;8.10;90.80;;;;;;5009705;28;20045;-72
2022/03/04 09:44:14;;;;;;;25.70;17.48;;;8.30;87.60;;;;;;5011386;28;20047;-72
2022/03/04 09:46:42;;;;;;;20.40;16.13;;;8.70;85.40;;;;;;5009896;28;20366;-71
2022/03/04 09:49:14;;;;;;;23.38;15.82;;;8.10;84.10;;;;;;5011478;28;20049;-73
2022/03/04 09:51:41;;;;;;;22.75;16.55;;;8.20;84.70;;;;;;4993746;28;20058;-73
2022/03/04 09:54:08;;;;;;;26.15;16.83;;;8.60;82.80;;;;;;5010264;28;20113;-73
2022/03/04 09:56:35;;;;;;;22.25;14.05;;;8.90;83.00;;;;;;5009759;28;20417;-73
2022/03/04 09:59:03;;;;;;;21.10;14.02;;;8.50;80.00;;;;;;5010250;28;20066;-72
2022/03/04 10:01:30;;;;;;;17.05;13.07;;;8.30;78.90;;;;;;5011015;28;20053;-74
2022/03/04 10:03:58;;;;;;;19.10;12.77;;;8.60;77.30;;;;;;5010001;28;20042;-75
2022/03/04 10:06:27;;;;;;;24.85;14.77;;;8.90;75.30;;;;;;5010021;28;20041;-76
2022/03/04 10:08:54;;;;;;;19.98;14.45;;;8.70;76.50;;;;;;4997383;28;20042;-75
2022/03/04 10:11:24;;;;;;;19.05;13.80;;;8.60;77.60;;;;;;4997175;28;20464;-77
2022/03/04 10:13:55;;;;;;;14.38;10.32;;;9.00;75.40;;;;;;5013663;28;20053;-75
2022/03/04 10:16:32;;;;;;;44.80;28.33;;;8.90;72.70;;;;;;5014619;28;20046;-75
2022/03/04 10:19:13;;;;;;;127.80;70.18;;;9.20;77.40;;;;;;5014892;28;20040;-75
2022/03/04 10:21:53;;;;;;;22.38;16.83;;;9.90;75.70;;;;;;5013740;28;20108;-71
2022/03/04 10:24:26;;;;;;;20.67;12.18;;;9.90;70.80;;;;;;5014009;28;20494;-73
2022/03/04 10:27:04;;;;;;;16.40;11.98;;;9.60;71.00;;;;;;5014259;28;20446;-75
2022/03/04 10:29:50;;;;;;;17.35;11.52;;;9.30;71.00;;;;;;5013720;28;20045;-74
2022/03/04 10:32:24;;;;;;;19.10;10.60;;;9.70;70.90;;;;;;4996939;28;20446;-74
2022/03/04 10:35:05;;;;;;;15.68;11.40;;;10.00;72.50;;;;;;5014144;28;20042;-74
2022/03/04 10:37:50;;;;;;;14.82;10.48;;;10.30;69.50;;;;;;5010770;28;20496;-74
2022/03/04 10:40:18;;;;;;;13.38;10.30;;;10.30;69.00;;;;;;5011862;28;20054;-73
2022/03/04 10:42:59;;;;;;;15.27;10.95;;;10.30;67.60;;;;;;5013821;28;20042;-74
2022/03/04 10:45:34;;;;;;;14.90;11.25;;;10.30;67.30;;;;;;5012477;28;20042;-76
2022/03/04 10:48:12;;;;;;;16.85;10.43;;;10.00;68.40;;;;;;4996903;28;20050;-75
2022/03/04 10:50:48;;;;;;;13.65;9.93;;;10.10;69.50;;;;;;4997263;28;20402;-72
2022/03/04 10:53:20;;;;;;;15.77;10.80;;;9.90;68.50;;;;;;5012267;28;20046;-76
2022/03/04 10:55:56;;;;;;;14.60;10.73;;;9.90;67.70;;;;;;5012924;28;20061;-73
2022/03/04 10:58:34;;;;;;;13.70;10.05;;;10.20;68.40;;;;;;4997048;28;20434;-73
2022/03/04 11:01:05;;;;;;;16.30;10.38;;;10.10;68.30;;;;;;4997260;28;20786;-73
2022/03/04 11:03:34;;;;;;;14.63;9.75;;;10.10;67.10;;;;;;5011937;28;20073;-74
2022/03/04 11:06:04;;;;;;;13.70;9.73;;;10.30;67.50;;;;;;4995628;28;20049;-73
2022/03/04 11:08:32;;;;;;;13.77;9.13;;;10.60;66.60;;;;;;5013310;28;20565;-75
2022/03/04 11:11:02;;;;;;;15.15;9.93;;;11.00;66.50;;;;;;4996643;28;20390;-74
2022/03/04 11:13:34;;;;;;;13.85;9.10;;;10.90;65.10;;;;;;5011171;28;20137;-74
2022/03/04 11:16:03;;;;;;;13.27;8.73;;;11.20;65.90;;;;;;4996318;28;20060;-73
2022/03/04 11:18:32;;;;;;;14.00;9.15;;;11.20;64.60;;;;;;5012772;28;20036;-72
2022/03/04 11:21:01;;;;;;;12.60;8.85;;;11.40;64.40;;;;;;4996080;28;20068;-74
2022/03/04 11:23:32;;;;;;;11.75;8.80;;;11.70;64.10;;;;;;5011738;28;20065;-72
2022/03/04 11:26:18;;;;;;;12.23;8.60;;;11.70;61.50;;;;;;5013119;28;20401;-74
2022/03/04 11:28:51;;;;;;;12.60;8.73;;;12.00;61.80;;;;;;4992079;28;20475;-74
2022/03/04 11:31:20;;;;;;;13.40;9.45;;;12.00;61.00;;;;;;4993343;28;20047;-73
2022/03/04 11:34:00;;;;;;;12.52;9.05;;;11.70;62.10;;;;;;4993435;28;20044;-75
2022/03/04 11:36:34;;;;;;;13.95;9.73;;;12.40;61.80;;;;;;4992246;28;20050;-76
2022/03/04 11:39:05;;;;;;;12.65;9.23;;;12.50;61.00;;;;;;4992050;28;20050;-75
2022/03/04 11:41:59;;;;;;;16.05;9.38;;;12.80;59.80;;;;;;4994987;28;20062;-75
2022/03/04 11:44:26;;;;;;;14.55;9.93;;;13.20;59.10;;;;;;5012404;28;20136;-73
2022/03/04 11:47:00;;;;;;;12.25;9.25;;;13.00;59.80;;;;;;5011885;28;20045;-74
2022/03/04 11:49:44;;;;;;;15.57;9.48;;;13.30;59.00;;;;;;5013224;28;20503;-74
2022/03/04 11:52:24;;;;;;;11.68;8.77;;;12.70;58.80;;;;;;5011926;28;20053;-74
2022/03/04 11:54:51;;;;;;;14.80;8.88;;;12.80;58.00;;;;;;5011574;28;20046;-73
2022/03/04 11:57:22;;;;;;;12.40;8.57;;;12.50;58.20;;;;;;5011474;28;20148;-72
2022/03/04 11:59:52;;;;;;;9.50;7.28;;;13.00;57.20;;;;;;4995400;28;20421;-73
2022/03/04 12:02:28;;;;;;;12.38;8.90;;;13.00;56.40;;;;;;5012439;28;20044;-74
2022/03/04 12:05:14;;;;;;;13.15;8.57;;;13.00;56.50;;;;;;5011809;28;20058;-73
2022/03/04 12:07:53;;;;;;;11.52;8.45;;;12.90;56.50;;;;;;5013112;28;20052;-76
2022/03/04 12:10:24;;;;;;;11.25;8.10;;;13.40;56.50;;;;;;5012784;28;20042;-72
2022/03/04 12:13:06;;;;;;;10.98;7.28;;;13.40;56.50;;;;;;5010868;28;20076;-72
2022/03/04 12:15:48;;;;;;;10.52;7.30;;;12.80;57.50;;;;;;5012800;28;20042;-73
2022/03/04 12:18:35;;;;;;;11.13;6.90;;;13.70;56.10;;;;;;5012468;28;20425;-72
2022/03/04 12:21:10;;;;;;;11.93;7.45;;;13.30;56.30;;;;;;5011408;28;20050;-73
2022/03/04 12:23:41;;;;;;;11.82;7.25;;;13.30;56.50;;;;;;5011059;28;20045;-73
2022/03/04 12:26:34;;;;;;;12.68;7.50;;;12.80;56.00;;;;;;5010613;28;20413;-74
2022/03/04 12:29:04;;;;;;;8.60;6.97;;;12.50;56.40;;;;;;5011036;28;20048;-71
2022/03/04 12:31:39;;;;;;;11.70;7.35;;;12.70;56.70;;;;;;4994069;28;20061;-72
2022/03/04 12:34:19;;;;;;;12.18;7.20;;;12.80;57.00;;;;;;5011733;28;20053;-74
2022/03/04 12:36:47;;;;;;;9.02;6.00;;;12.80;56.20;;;;;;4995000;28;20046;-74
2022/03/04 12:39:18;;;;;;;10.63;6.82;;;12.60;55.50;;;;;;5010928;28;20046;-74
2022/03/04 12:41:46;;;;;;;10.30;6.25;;;13.20;55.20;;;;;;5012112;28;20042;-73
2022/03/04 12:44:13;;;;;;;9.23;7.82;;;13.20;54.50;;;;;;5011707;28;20113;-75
2022/03/04 12:46:44;;;;;;;8.23;5.95;;;13.00;54.00;;;;;;5012224;28;20056;-74